sensor_id;sensor_type;location;lat;lon;timestamp;pressure;altitude;pressure_sealevel;temperature;humidity
3960;BME280;1994;48.640;8.894;2023-02-03T03:14:22;97303.78;;;4.95;100.00
3960;BME280;1994;48.640;8.894;2023-02-03T03:17:19;97296.44;;;4.92;100.00
3960;BME280;1994;48.640;8.894;2023-02-03T03:19:53;97287.13;;;4.91;100.00
3960;BME280;1994;48.640;8.894;2023-02-03T03:22:27;97274.09;;;4.92;100.00
3960;BME280;1994;48.640;8.894;2023-02-03T03:25:05;97269.91;;;4.99;100.00
3960;BME280;1994;48.640;8.894;2023-02-03T03:27:38;97271.28;;;5.10;100.00
3960;BME280;1994;48.640;8.894;2023-02-03T03:30:09;97264.59;;;5.01;100.00
3960;BME280;1994;48.640;8.894;2023-02-03T03:32:37;97256.63;;;4.96;100.00
3960;BME280;1994;48.640;8.894;2023-02-03T03:35:05;97261.00;;;5.10;100.00
3960;BME280;1994;48.640;8.894;2023-02-03T03:40:29;97271.16;;;5.03;100.00
3960;BME280;1994;48.640;8.894;2023-02-03T03:43:01;97289.41;;;5.08;100.00
3960;BME280;1994;48.640;8.894;2023-02-03T03:48:37;97315.91;;;5.09;100.00
3960;BME280;1994;48.640;8.894;2023-02-03T03:51:57;97325.50;;;5.15;100.00
3960;BME280;1994;48.640;8.894;2023-02-03T03:54:08;97309.16;;;5.08;100.00
3960;BME280;1994;48.640;8.894;2023-02-03T03:57:01;97321.63;;;5.19;100.00
3960;BME280;1994;48.640;8.894;2023-02-03T03:59:33;97325.19;;;5.10;100.00
3960;BME280;1994;48.640;8.894;2023-02-03T04:02:03;97326.75;;;5.19;100.00
3960;BME280;1994;48.640;8.894;2023-02-03T04:04:30;97330.63;;;5.15;100.00
3960;BME280;1994;48.640;8.894;2023-02-03T04:06:57;97328.06;;;5.15;100.00
3960;BME280;1994;48.640;8.894;2023-02-03T04:09:23;97330.63;;;5.15;100.00
3960;BME280;1994;48.640;8.894;2023-02-03T04:11:59;97344.44;;;5.14;100.00
3960;BME280;1994;48.640;8.894;2023-02-03T04:14:29;97358.84;;;5.23;100.00
3960;BME280;1994;48.640;8.894;2023-02-03T04:16:57;97350.16;;;5.24;100.00
3960;BME280;1994;48.640;8.894;2023-02-03T04:19:23;97344.09;;;5.17;100.00
3960;BME280;1994;48.640;8.894;2023-02-03T04:21:48;97335.44;;;5.18;100.00
3960;BME280;1994;48.640;8.894;2023-02-03T04:24:14;97332.56;;;5.13;100.00
3960;BME280;1994;48.640;8.894;2023-02-03T04:26:43;97325.19;;;5.10;100.00
3960;BME280;1994;48.640;8.894;2023-02-03T04:29:12;97337.66;;;5.21;100.00
3960;BME280;1994;48.640;8.894;2023-02-03T04:31:38;97344.09;;;5.17;100.00
3960;BME280;1994;48.640;8.894;2023-02-03T04:34:04;97353.44;;;5.10;100.00
3960;BME280;1994;48.640;8.894;2023-02-03T04:36:30;97348.75;;;5.13;100.00
3960;BME280;1994;48.640;8.894;2023-02-03T04:38:56;97345.34;;;5.21;100.00
3960;BME280;1994;48.640;8.894;2023-02-03T04:41:22;97324.69;;;5.37;100.00
3960;BME280;1994;48.640;8.894;2023-02-03T04:43:48;97323.78;;;5.30;100.00
3960;BME280;1994;48.640;8.894;2023-02-03T04:46:14;97325.38;;;5.31;100.00
3960;BME280;1994;48.640;8.894;2023-02-03T04:48:39;97320.25;;;5.31;100.00
3960;BME280;1994;48.640;8.894;2023-02-03T04:51:08;97331.06;;;5.18;100.00
3960;BME280;1994;48.640;8.894;2023-02-03T04:53:35;97317.19;;;5.05;100.00
3960;BME280;1994;48.640;8.894;2023-02-03T04:56:01;97310.00;;;5.00;100.00
3960;BME280;1994;48.640;8.894;2023-02-03T04:58:30;97308.59;;;4.98;100.00
3960;BME280;1994;48.640;8.894;2023-02-03T05:00:56;97299.22;;;5.05;100.00
3960;BME280;1994;48.640;8.894;2023-02-03T05:03:22;97325.31;;;5.16;100.00
3960;BME280;1994;48.640;8.894;2023-02-03T05:05:49;97303.56;;;5.27;100.00
3960;BME280;1994;48.640;8.894;2023-02-03T05:08:15;97311.34;;;5.19;100.00
3960;BME280;1994;48.640;8.894;2023-02-03T05:10:40;97314.66;;;5.27;100.00
3960;BME280;1994;48.640;8.894;2023-02-03T05:13:06;97315.78;;;5.25;100.00
3960;BME280;1994;48.640;8.894;2023-02-03T05:15:32;97306.59;;;5.08;100.00
3960;BME280;1994;48.640;8.894;2023-02-03T05:17:58;97309.28;;;5.14;100.00
3960;BME280;1994;48.640;8.894;2023-02-03T05:20:24;97311.34;;;5.19;100.00
3960;BME280;1994;48.640;8.894;2023-02-03T05:22:49;97308.31;;;5.15;100.00
3960;BME280;1994;48.640;8.894;2023-02-03T05:25:15;97314.41;;;5.14;100.00
3960;BME280;1994;48.640;8.894;2023-02-03T05:27:41;97315.56;;;5.12;100.00
3960;BME280;1994;48.640;8.894;2023-02-03T05:30:09;97322.97;;;5.07;100.00
3960;BME280;1994;48.640;8.894;2023-02-03T05:32:35;97323.91;;;5.14;100.00
3960;BME280;1994;48.640;8.894;2023-02-03T05:35:01;97329.94;;;5.21;100.00
3960;BME280;1994;48.640;8.894;2023-02-03T05:37:26;97332.47;;;5.29;100.00
3960;BME280;1994;48.640;8.894;2023-02-03T05:39:52;97340.47;;;5.34;100.00
3960;BME280;1994;48.640;8.894;2023-02-03T05:42:18;97338.16;;;5.39;100.00
3960;BME280;1994;48.640;8.894;2023-02-03T05:44:44;97342.97;;;5.42;99.87
3960;BME280;1994;48.640;8.894;2023-02-03T05:47:10;97347.09;;;5.51;99.53
3960;BME280;1994;48.640;8.894;2023-02-03T05:49:35;97347.25;;;5.49;98.90
3960;BME280;1994;48.640;8.894;2023-02-03T05:52:01;97340.84;;;5.45;98.55
3960;BME280;1994;48.640;8.894;2023-02-03T05:54:27;97334.44;;;5.41;98.97
3960;BME280;1994;48.640;8.894;2023-02-03T05:56:53;97334.53;;;5.56;98.61
3960;BME280;1994;48.640;8.894;2023-02-03T05:59:19;97328.44;;;5.49;98.28
3960;BME280;1994;48.640;8.894;2023-02-03T06:01:45;97322.97;;;5.52;98.29
3960;BME280;1994;48.640;8.894;2023-02-03T06:04:10;97316.13;;;5.44;98.41
3960;BME280;1994;48.640;8.894;2023-02-03T06:06:36;97310.19;;;5.44;98.73
3960;BME280;1994;48.640;8.894;2023-02-03T06:09:07;97319.75;;;5.50;98.31
3960;BME280;1994;48.640;8.894;2023-02-03T06:11:34;97321.38;;;5.51;98.39
3960;BME280;1994;48.640;8.894;2023-02-03T06:14:02;97330.41;;;5.47;98.22
3960;BME280;1994;48.640;8.894;2023-02-03T06:16:28;97320.00;;;5.40;98.17
3960;BME280;1994;48.640;8.894;2023-02-03T06:18:56;97332.34;;;5.45;97.31
3960;BME280;1994;48.640;8.894;2023-02-03T06:21:26;97316.38;;;5.35;97.84
3960;BME280;1994;48.640;8.894;2023-02-03T06:23:52;97317.06;;;5.29;98.66
3960;BME280;1994;48.640;8.894;2023-02-03T06:26:19;97307.47;;;5.23;99.51
3960;BME280;1994;48.640;8.894;2023-02-03T06:28:45;97301.69;;;5.21;100.00
3960;BME280;1994;48.640;8.894;2023-02-03T06:31:10;97301.06;;;5.19;100.00
3960;BME280;1994;48.640;8.894;2023-02-03T06:33:36;97300.16;;;5.12;100.00
3960;BME280;1994;48.640;8.894;2023-02-03T06:36:03;97292.97;;;5.30;100.00
3960;BME280;1994;48.640;8.894;2023-02-03T06:38:28;97279.25;;;5.15;100.00
3960;BME280;1994;48.640;8.894;2023-02-03T06:40:54;97287.94;;;5.14;100.00
3960;BME280;1994;48.640;8.894;2023-02-03T06:43:20;97299.47;;;5.18;100.00
3960;BME280;1994;48.640;8.894;2023-02-03T06:45:46;97306.22;;;5.19;100.00
3960;BME280;1994;48.640;8.894;2023-02-03T06:48:13;97320.72;;;5.12;100.00
3960;BME280;1994;48.640;8.894;2023-02-03T06:50:39;97325.03;;;5.11;100.00
3960;BME280;1994;48.640;8.894;2023-02-03T06:53:05;97325.59;;;4.99;100.00
3960;BME280;1994;48.640;8.894;2023-02-03T06:55:31;97318.84;;;4.98;100.00
3960;BME280;1994;48.640;8.894;2023-02-03T06:57:57;97304.38;;;5.05;100.00
3960;BME280;1994;48.640;8.894;2023-02-03T07:00:23;97297.34;;;4.99;100.00
3960;BME280;1994;48.640;8.894;2023-02-03T07:02:56;97299.91;;;4.99;100.00
3960;BME280;1994;48.640;8.894;2023-02-03T07:05:24;97297.28;;;4.84;100.00
3960;BME280;1994;48.640;8.894;2023-02-03T07:07:50;97295.22;;;4.80;100.00
3960;BME280;1994;48.640;8.894;2023-02-03T07:10:17;97299.09;;;4.76;100.00
3960;BME280;1994;48.640;8.894;2023-02-03T07:12:43;97296.47;;;4.84;100.00
3960;BME280;1994;48.640;8.894;2023-02-03T07:15:10;97289.81;;;4.67;100.00
3960;BME280;1994;48.640;8.894;2023-02-03T07:17:36;97289.13;;;4.73;100.00
3960;BME280;1994;48.640;8.894;2023-02-03T07:20:02;97282.78;;;4.69;100.00
3960;BME280;1994;48.640;8.894;2023-02-03T07:22:28;97281.50;;;4.65;100.00
3960;BME280;1994;48.640;8.894;2023-02-03T07:24:54;97291.09;;;4.71;100.00
3960;BME280;1994;48.640;8.894;2023-02-03T07:27:20;97301.94;;;4.81;100.00
3960;BME280;1994;48.640;8.894;2023-02-03T07:29:46;97289.72;;;4.83;100.00
3960;BME280;1994;48.640;8.894;2023-02-03T07:32:11;97291.09;;;4.71;100.00
3960;BME280;1994;48.640;8.894;2023-02-03T07:34:37;97290.53;;;4.83;100.00
3960;BME280;1994;48.640;8.894;2023-02-03T07:37:03;97281.50;;;4.65;100.00
3960;BME280;1994;48.640;8.894;2023-02-03T07:39:29;97269.66;;;4.64;100.00
3960;BME280;1994;48.640;8.894;2023-02-03T07:41:55;97281.16;;;4.68;100.00
3960;BME280;1994;48.640;8.894;2023-02-03T07:44:20;97283.09;;;4.66;100.00
3960;BME280;1994;48.640;8.894;2023-02-03T07:46:46;97280.50;;;4.74;100.00
3960;BME280;1994;48.640;8.894;2023-02-03T07:49:12;97282.09;;;4.75;100.00
3960;BME280;1994;48.640;8.894;2023-02-03T07:51:38;97286.41;;;4.74;100.00
3960;BME280;1994;48.640;8.894;2023-02-03T07:54:05;97312.13;;;4.97;100.00
3960;BME280;1994;48.640;8.894;2023-02-03T07:56:31;97314.72;;;4.89;100.00
3960;BME280;1994;48.640;8.894;2023-02-03T07:58:58;97314.25;;;4.93;100.00
3960;BME280;1994;48.640;8.894;2023-02-03T08:01:25;97318.25;;;4.88;100.00
3960;BME280;1994;48.640;8.894;2023-02-03T08:03:51;97320.44;;;4.99;100.00
3960;BME280;1994;48.640;8.894;2023-02-03T08:06:17;97317.88;;;4.99;100.00
3960;BME280;1994;48.640;8.894;2023-02-03T08:08:43;97335.81;;;5.07;100.00
3960;BME280;1994;48.640;8.894;2023-02-03T08:11:09;97346.13;;;4.99;100.00
3960;BME280;1994;48.640;8.894;2023-02-03T08:13:35;97359.22;;;5.12;100.00
3960;BME280;1994;48.640;8.894;2023-02-03T08:16:02;97364.16;;;5.13;100.00
3960;BME280;1994;48.640;8.894;2023-02-03T08:18:27;97356.66;;;5.12;100.00
3960;BME280;1994;48.640;8.894;2023-02-03T08:20:53;97355.38;;;5.08;100.00
3960;BME280;1994;48.640;8.894;2023-02-03T08:23:19;97343.56;;;4.99;100.00
3960;BME280;1994;48.640;8.894;2023-02-03T08:25:51;97340.69;;;4.94;100.00
3960;BME280;1994;48.640;8.894;2023-02-03T08:28:17;97350.94;;;5.02;100.00
3960;BME280;1994;48.640;8.894;2023-02-03T08:30:43;97342.94;;;4.97;100.00
3960;BME280;1994;48.640;8.894;2023-02-03T08:33:08;97352.81;;;5.08;100.00
3960;BME280;1994;48.640;8.894;2023-02-03T08:35:34;97362.72;;;5.19;100.00
3960;BME280;1994;48.640;8.894;2023-02-03T08:38:00;97373.75;;;4.97;100.00
3960;BME280;1994;48.640;8.894;2023-02-03T08:40:26;97366.94;;;5.12;100.00
3960;BME280;1994;48.640;8.894;2023-02-03T08:42:52;97364.97;;;5.14;100.00
3960;BME280;1994;48.640;8.894;2023-02-03T08:45:18;97363.63;;;5.26;100.00
3960;BME280;1994;48.640;8.894;2023-02-03T08:47:44;97360.44;;;5.24;100.00
3960;BME280;1994;48.640;8.894;2023-02-03T08:50:10;97366.78;;;5.36;100.00
3960;BME280;1994;48.640;8.894;2023-02-03T08:52:36;97388.31;;;5.35;100.00
3960;BME280;1994;48.640;8.894;2023-02-03T08:55:03;97382.47;;;5.41;100.00
3960;BME280;1994;48.640;8.894;2023-02-03T08:57:33;97379.38;;;5.45;100.00
3960;BME280;1994;48.640;8.894;2023-02-03T08:59:59;97389.78;;;5.52;100.00
3960;BME280;1994;48.640;8.894;2023-02-03T09:02:25;97377.34;;;5.41;100.00
3960;BME280;1994;48.640;8.894;2023-02-03T09:04:50;97363.53;;;5.42;100.00
3960;BME280;1994;48.640;8.894;2023-02-03T09:07:16;97367.63;;;5.51;100.00
3960;BME280;1994;48.640;8.894;2023-02-03T09:09:42;97379.16;;;5.55;100.00
3960;BME280;1994;48.640;8.894;2023-02-03T09:12:08;97376.66;;;5.47;100.00
3960;BME280;1994;48.640;8.894;2023-02-03T09:14:36;97378.38;;;5.54;100.00
3960;BME280;1994;48.640;8.894;2023-02-03T09:17:03;97364.63;;;5.47;100.00
3960;BME280;1994;48.640;8.894;2023-02-03T09:19:30;97350.59;;;5.50;100.00
3960;BME280;1994;48.640;8.894;2023-02-03T09:21:56;97347.13;;;5.43;100.00
3960;BME280;1994;48.640;8.894;2023-02-03T09:24:22;97349.53;;;5.67;100.00
3960;BME280;1994;48.640;8.894;2023-02-03T09:26:48;97340.47;;;5.71;100.00
3960;BME280;1994;48.640;8.894;2023-02-03T09:29:14;97342.06;;;5.80;100.00
3960;BME280;1994;48.640;8.894;2023-02-03T09:31:40;97342.25;;;5.93;100.00
3960;BME280;1994;48.640;8.894;2023-02-03T09:34:07;97340.88;;;6.05;100.00
3960;BME280;1994;48.640;8.894;2023-02-03T09:36:33;97340.94;;;5.97;100.00
3960;BME280;1994;48.640;8.894;2023-02-03T09:38:59;97356.75;;;6.23;100.00
3960;BME280;1994;48.640;8.894;2023-02-03T09:44:13;97358.97;;;6.26;100.00
3960;BME280;1994;48.640;8.894;2023-02-03T09:46:50;97350.13;;;6.43;100.00
3960;BME280;1994;48.640;8.894;2023-02-03T09:52:19;97358.28;;;6.32;100.00
3960;BME280;1994;48.640;8.894;2023-02-03T09:55:47;97361.91;;;6.37;98.97
3960;BME280;1994;48.640;8.894;2023-02-03T10:03:38;97352.75;;;6.64;99.86
3960;BME280;1994;48.640;8.894;2023-02-03T10:06:30;97356.91;;;6.94;99.74
3960;BME280;1994;48.640;8.894;2023-02-03T10:18:08;97337.94;;;6.66;96.78
3960;BME280;1994;48.640;8.894;2023-02-03T10:20:48;97340.84;;;6.77;97.50
3960;BME280;1994;48.640;8.894;2023-02-03T10:23:39;97348.31;;;6.72;97.40
3960;BME280;1994;48.640;8.894;2023-02-03T10:26:20;97320.44;;;6.76;96.07
3960;BME280;1994;48.640;8.894;2023-02-03T10:28:56;97332.19;;;6.99;97.04
3960;BME280;1994;48.640;8.894;2023-02-03T10:31:25;97344.53;;;7.04;95.48
3960;BME280;1994;48.640;8.894;2023-02-03T10:34:16;97360.78;;;7.04;95.66
3960;BME280;1994;48.640;8.894;2023-02-03T10:37:46;97365.81;;;7.27;94.91
3960;BME280;1994;48.640;8.894;2023-02-03T10:39:51;97345.41;;;7.11;94.61
3960;BME280;1994;48.640;8.894;2023-02-03T10:42:17;97345.97;;;7.06;94.53
3960;BME280;1994;48.640;8.894;2023-02-03T10:44:52;97355.38;;;7.14;94.31
3960;BME280;1994;48.640;8.894;2023-02-03T10:47:51;97351.81;;;7.15;93.89
3960;BME280;1994;48.640;8.894;2023-02-03T10:50:22;97362.09;;;7.15;95.01
3960;BME280;1994;48.640;8.894;2023-02-03T10:52:49;97353.91;;;7.26;94.20
3960;BME280;1994;48.640;8.894;2023-02-03T10:57:48;97346.38;;;7.10;94.63
3960;BME280;1994;48.640;8.894;2023-02-03T11:00:31;97320.06;;;6.79;94.69
3960;BME280;1994;48.640;8.894;2023-02-03T11:03:22;97320.44;;;6.76;94.70
3960;BME280;1994;48.640;8.894;2023-02-03T11:06:13;97300.84;;;6.96;95.17
3960;BME280;1994;48.640;8.894;2023-02-03T11:08:46;97284.69;;;7.23;93.23
3960;BME280;1994;48.640;8.894;2023-02-03T11:11:33;97292.72;;;7.13;92.69
3960;BME280;1994;48.640;8.894;2023-02-03T11:16:34;97298.53;;;7.01;94.41
3960;BME280;1994;48.640;8.894;2023-02-03T11:19:19;97276.19;;;7.08;93.65
3960;BME280;1994;48.640;8.894;2023-02-03T11:21:47;97287.78;;;6.97;93.90
3960;BME280;1994;48.640;8.894;2023-02-03T11:24:31;97289.56;;;6.97;93.90
3960;BME280;1994;48.640;8.894;2023-02-03T11:27:12;97281.31;;;7.01;93.84
3960;BME280;1994;48.640;8.894;2023-02-03T11:29:45;97275.75;;;7.19;93.41
3960;BME280;1994;48.640;8.894;2023-02-03T11:32:30;97267.97;;;7.40;92.17
3960;BME280;1994;48.640;8.894;2023-02-03T11:37:40;97279.03;;;7.34;92.23
3960;BME280;1994;48.640;8.894;2023-02-03T11:42:43;97278.69;;;7.16;91.67
3960;BME280;1994;48.640;8.894;2023-02-03T11:53:56;97275.94;;;7.45;90.51
3960;BME280;1994;48.640;8.894;2023-02-03T12:00:24;97278.53;;;7.24;90.42
3960;BME280;1994;48.640;8.894;2023-02-03T12:12:15;97266.38;;;6.97;92.77
3960;BME280;1994;48.640;8.894;2023-02-03T12:24:05;97265.53;;;6.90;93.14
3960;BME280;1994;48.640;8.894;2023-02-03T12:30:20;97262.94;;;6.90;91.93
3960;BME280;1994;48.640;8.894;2023-02-03T12:32:54;97277.28;;;6.78;92.12
3960;BME280;1994;48.640;8.894;2023-02-03T12:38:33;97271.41;;;6.84;91.58
3960;BME280;1994;48.640;8.894;2023-02-03T12:41:12;97260.44;;;6.96;91.21
3960;BME280;1994;48.640;8.894;2023-02-03T12:43:45;97260.03;;;6.93;91.05
3960;BME280;1994;48.640;8.894;2023-02-03T12:46:31;97247.88;;;7.08;91.11
3960;BME280;1994;48.640;8.894;2023-02-03T12:54:36;97237.56;;;7.08;90.13
3960;BME280;1994;48.640;8.894;2023-02-03T13:00:45;97229.63;;;7.03;89.02
3960;BME280;1994;48.640;8.894;2023-02-03T13:06:05;97198.19;;;7.14;89.18
3960;BME280;1994;48.640;8.894;2023-02-03T13:08:48;97185.75;;;7.17;89.46
3960;BME280;1994;48.640;8.894;2023-02-03T13:14:37;97199.47;;;7.03;89.14
3960;BME280;1994;48.640;8.894;2023-02-03T13:17:26;97178.69;;;7.26;88.40
3960;BME280;1994;48.640;8.894;2023-02-03T13:20:11;97175.84;;;7.21;88.56
3960;BME280;1994;48.640;8.894;2023-02-03T13:22:40;97186.66;;;7.31;88.30
3960;BME280;1994;48.640;8.894;2023-02-03T13:25:29;97186.25;;;7.34;88.28
3960;BME280;1994;48.640;8.894;2023-02-03T13:31:14;97178.56;;;7.13;89.05
3960;BME280;1994;48.640;8.894;2023-02-03T13:42:33;97198.16;;;7.35;87.94
3960;BME280;1994;48.640;8.894;2023-02-03T13:47:43;97196.03;;;7.45;87.11
3960;BME280;1994;48.640;8.894;2023-02-03T13:50:24;97192.34;;;7.54;87.71
3960;BME280;1994;48.640;8.894;2023-02-03T13:53:05;97183.44;;;7.29;88.43
3960;BME280;1994;48.640;8.894;2023-02-03T13:55:34;97185.41;;;7.27;88.96
3960;BME280;1994;48.640;8.894;2023-02-03T13:58:03;97176.88;;;7.54;88.27
3960;BME280;1994;48.640;8.894;2023-02-03T14:05:58;97196.16;;;7.30;90.54
3960;BME280;1994;48.640;8.894;2023-02-03T14:11:51;97202.72;;;7.12;91.60
3960;BME280;1994;48.640;8.894;2023-02-03T14:17:02;97205.88;;;7.07;91.03
3960;BME280;1994;48.640;8.894;2023-02-03T14:22:15;97206.88;;;7.13;90.77
3960;BME280;1994;48.640;8.894;2023-02-03T14:24:45;97222.09;;;7.08;90.86
3960;BME280;1994;48.640;8.894;2023-02-03T14:27:25;97225.59;;;7.21;91.33
3960;BME280;1994;48.640;8.894;2023-02-03T14:30:21;97232.19;;;7.03;91.75
3960;BME280;1994;48.640;8.894;2023-02-03T14:32:59;97226.38;;;6.94;92.70
3960;BME280;1994;48.640;8.894;2023-02-03T14:35:36;97235.13;;;7.00;93.15
3960;BME280;1994;48.640;8.894;2023-02-03T14:38:10;97239.53;;;7.06;92.80
3960;BME280;1994;48.640;8.894;2023-02-03T14:40:52;97223.81;;;6.80;94.44
3960;BME280;1994;48.640;8.894;2023-02-03T14:43:38;97227.69;;;6.90;94.57
3960;BME280;1994;48.640;8.894;2023-02-03T14:49:19;97236.44;;;6.75;95.90
3960;BME280;1994;48.640;8.894;2023-02-03T14:55:01;97238.88;;;6.62;97.23
3960;BME280;1994;48.640;8.894;2023-02-03T14:57:50;97235.06;;;6.58;97.52
3960;BME280;1994;48.640;8.894;2023-02-03T15:05:43;97245.75;;;6.55;99.05
3960;BME280;1994;48.640;8.894;2023-02-03T15:08:46;97253.28;;;6.42;99.88
3960;BME280;1994;48.640;8.894;2023-02-03T15:11:32;97248.41;;;6.47;99.89
3960;BME280;1994;48.640;8.894;2023-02-03T15:14:24;97253.50;;;6.40;100.00
3960;BME280;1994;48.640;8.894;2023-02-03T15:17:09;97258.97;;;6.37;100.00
3960;BME280;1994;48.640;8.894;2023-02-03T15:19:41;97256.59;;;6.36;100.00
3960;BME280;1994;48.640;8.894;2023-02-03T15:22:28;97259.78;;;6.38;100.00
3960;BME280;1994;48.640;8.894;2023-02-03T15:24:58;97248.25;;;6.34;100.00
3960;BME280;1994;48.640;8.894;2023-02-03T15:27:29;97250.81;;;6.48;100.00
3960;BME280;1994;48.640;8.894;2023-02-03T15:29:56;97255.13;;;6.48;100.00
3960;BME280;1994;48.640;8.894;2023-02-03T15:32:35;97243.97;;;6.41;100.00
3960;BME280;1994;48.640;8.894;2023-02-03T15:35:08;97235.13;;;6.29;100.00
3960;BME280;1994;48.640;8.894;2023-02-03T15:38:00;97230.31;;;6.26;100.00
3960;BME280;1994;48.640;8.894;2023-02-03T15:40:43;97228.53;;;6.41;100.00
3960;BME280;1994;48.640;8.894;2023-02-03T15:43:31;97231.66;;;6.36;100.00
3960;BME280;1994;48.640;8.894;2023-02-03T15:46:27;97241.41;;;6.41;100.00
3960;BME280;1994;48.640;8.894;2023-02-03T15:49:20;97242.38;;;6.40;100.00
3960;BME280;1994;48.640;8.894;2023-02-03T15:52:11;97249.50;;;6.38;100.00
3960;BME280;1994;48.640;8.894;2023-02-03T15:54:43;97255.84;;;6.42;100.00
3960;BME280;1994;48.640;8.894;2023-02-03T15:57:22;97258.78;;;6.53;100.00
3960;BME280;1994;48.640;8.894;2023-02-03T16:00:02;97263.63;;;6.63;100.00
3960;BME280;1994;48.640;8.894;2023-02-03T16:02:41;97266.78;;;6.44;100.00
3960;BME280;1994;48.640;8.894;2023-02-03T16:05:32;97262.25;;;6.46;100.00
3960;BME280;1994;48.640;8.894;2023-02-03T16:11:00;97273.97;;;6.48;100.00
3960;BME280;1994;48.640;8.894;2023-02-03T16:13:28;97272.94;;;6.64;100.00
3960;BME280;1994;48.640;8.894;2023-02-03T16:16:13;97264.53;;;6.70;100.00
3960;BME280;1994;48.640;8.894;2023-02-03T16:18:40;97269.16;;;6.60;100.00
3960;BME280;1994;48.640;8.894;2023-02-03T16:23:54;97273.16;;;6.62;100.00
3960;BME280;1994;48.640;8.894;2023-02-03T16:26:23;97270.53;;;6.41;100.00
3960;BME280;1994;48.640;8.894;2023-02-03T16:29:10;97283.25;;;6.64;100.00
3960;BME280;1994;48.640;8.894;2023-02-03T16:31:56;97275.66;;;6.56;100.00
3960;BME280;1994;48.640;8.894;2023-02-03T16:34:41;97269.00;;;6.47;100.00
3960;BME280;1994;48.640;8.894;2023-02-03T16:37:28;97272.19;;;6.49;100.00
3960;BME280;1994;48.640;8.894;2023-02-03T16:40:20;97279.41;;;6.39;100.00
3960;BME280;1994;48.640;8.894;2023-02-03T16:43:13;97278.22;;;6.56;100.00
3960;BME280;1994;48.640;8.894;2023-02-03T16:46:00;97270.25;;;6.51;100.00
3960;BME280;1994;48.640;8.894;2023-02-03T16:48:45;97268.13;;;6.40;100.00
3960;BME280;1994;48.640;8.894;2023-02-03T16:51:39;97265.28;;;6.35;100.00
3960;BME280;1994;48.640;8.894;2023-02-03T16:54:09;97263.31;;;6.37;100.00
3960;BME280;1994;48.640;8.894;2023-02-03T16:56:37;97253.84;;;6.23;100.00
3960;BME280;1994;48.640;8.894;2023-02-03T16:59:03;97259.69;;;6.31;100.00
3960;BME280;1994;48.640;8.894;2023-02-03T17:01:29;97250.22;;;6.32;100.00
3960;BME280;1994;48.640;8.894;2023-02-03T17:03:55;97244.00;;;6.26;100.00
3960;BME280;1994;48.640;8.894;2023-02-03T17:06:21;97245.53;;;6.21;100.00
3960;BME280;1994;48.640;8.894;2023-02-03T17:08:46;97259.97;;;6.22;100.00
3960;BME280;1994;48.640;8.894;2023-02-03T17:11:19;97262.09;;;6.33;100.00
3960;BME280;1994;48.640;8.894;2023-02-03T17:13:46;97262.09;;;6.33;100.00
3960;BME280;1994;48.640;8.894;2023-02-03T17:16:16;97261.81;;;6.42;100.00
3960;BME280;1994;48.640;8.894;2023-02-03T17:18:43;97244.69;;;6.35;100.00
3960;BME280;1994;48.640;8.894;2023-02-03T17:21:14;97260.13;;;6.35;100.00
3960;BME280;1994;48.640;8.894;2023-02-03T17:23:40;97264.03;;;6.31;100.00
3960;BME280;1994;48.640;8.894;2023-02-03T17:26:07;97275.72;;;6.48;100.00
3960;BME280;1994;48.640;8.894;2023-02-03T17:28:33;97274.50;;;6.44;100.00
3960;BME280;1994;48.640;8.894;2023-02-03T17:31:02;97286.53;;;6.58;100.00
3960;BME280;1994;48.640;8.894;2023-02-03T17:33:30;97269.72;;;6.41;100.00
3960;BME280;1994;48.640;8.894;2023-02-03T17:36:05;97280.66;;;6.43;100.00
3960;BME280;1994;48.640;8.894;2023-02-03T17:38:41;97271.31;;;6.42;100.00
3960;BME280;1994;48.640;8.894;2023-02-03T17:41:11;97267.50;;;6.52;100.00
3960;BME280;1994;48.640;8.894;2023-02-03T17:43:47;97261.19;;;6.55;100.00
3960;BME280;1994;48.640;8.894;2023-02-03T17:46:20;97263.13;;;6.53;100.00
3960;BME280;1994;48.640;8.894;2023-02-03T17:48:46;97291.44;;;6.67;100.00
3960;BME280;1994;48.640;8.894;2023-02-03T17:51:18;97299.84;;;6.76;100.00
3960;BME280;1994;48.640;8.894;2023-02-03T17:53:46;97301.88;;;6.80;100.00
3960;BME280;1994;48.640;8.894;2023-02-03T17:56:22;97301.97;;;6.87;100.00
3960;BME280;1994;48.640;8.894;2023-02-03T17:58:58;97291.66;;;6.87;100.00
3960;BME280;1994;48.640;8.894;2023-02-03T18:01:25;97298.75;;;6.85;100.00
3960;BME280;1994;48.640;8.894;2023-02-03T18:03:59;97293.69;;;6.91;100.00
3960;BME280;1994;48.640;8.894;2023-02-03T18:06:27;97280.13;;;6.83;100.00
3960;BME280;1994;48.640;8.894;2023-02-03T18:08:53;97287.44;;;6.65;100.00
3960;BME280;1994;48.640;8.894;2023-02-03T18:11:26;97288.81;;;6.82;100.00
3960;BME280;1994;48.640;8.894;2023-02-03T18:13:52;97288.81;;;6.82;100.00
3960;BME280;1994;48.640;8.894;2023-02-03T18:16:22;97289.09;;;6.87;100.00
3960;BME280;1994;48.640;8.894;2023-02-03T18:18:51;97301.50;;;6.83;100.00
3960;BME280;1994;48.640;8.894;2023-02-03T18:21:19;97303.75;;;6.72;100.00
3960;BME280;1994;48.640;8.894;2023-02-03T18:23:46;97300.72;;;6.83;100.00
3960;BME280;1994;48.640;8.894;2023-02-03T18:26:17;97301.56;;;6.90;100.00
3960;BME280;1994;48.640;8.894;2023-02-03T18:28:43;97307.97;;;6.94;100.00
3960;BME280;1994;48.640;8.894;2023-02-03T18:31:14;97310.63;;;6.86;100.00
3960;BME280;1994;48.640;8.894;2023-02-03T18:33:42;97327.75;;;6.93;100.00
3960;BME280;1994;48.640;8.894;2023-02-03T18:36:08;97320.69;;;6.95;100.00
3960;BME280;1994;48.640;8.894;2023-02-03T18:38:35;97328.19;;;6.97;100.00
3960;BME280;1994;48.640;8.894;2023-02-03T18:43:40;97332.44;;;7.04;100.00
3960;BME280;1994;48.640;8.894;2023-02-03T18:46:18;97323.56;;;7.07;100.00
3960;BME280;1994;48.640;8.894;2023-02-03T18:48:47;97336.66;;;7.05;100.00
3960;BME280;1994;48.640;8.894;2023-02-03T18:51:16;97325.16;;;7.08;100.00
3960;BME280;1994;48.640;8.894;2023-02-03T18:53:43;97314.41;;;7.04;100.00
3960;BME280;1994;48.640;8.894;2023-02-03T18:56:21;97316.81;;;7.06;100.00
3960;BME280;1994;48.640;8.894;2023-02-03T18:58:48;97315.66;;;7.08;100.00
3960;BME280;1994;48.640;8.894;2023-02-03T19:01:29;97320.47;;;6.97;100.00
3960;BME280;1994;48.640;8.894;2023-02-03T19:03:57;97327.03;;;6.99;100.00
3960;BME280;1994;48.640;8.894;2023-02-03T19:06:28;97332.00;;;7.01;100.00
3960;BME280;1994;48.640;8.894;2023-02-03T19:08:56;97335.34;;;7.16;100.00
3960;BME280;1994;48.640;8.894;2023-02-03T19:11:27;97307.38;;;7.13;100.00
3960;BME280;1994;48.640;8.894;2023-02-03T19:13:53;97315.09;;;7.13;100.00
3960;BME280;1994;48.640;8.894;2023-02-03T19:16:19;97309.69;;;7.08;100.00
3960;BME280;1994;48.640;8.894;2023-02-03T19:18:46;97305.66;;;6.99;100.00
3960;BME280;1994;48.640;8.894;2023-02-03T19:21:13;97297.66;;;6.94;100.00